createdAt,value
2019-02-14T00:00:11.895Z,2.44
2019-02-14T00:02:40.229Z,2.71
2019-02-14T00:05:16.198Z,1.42
2019-02-14T00:07:38.747Z,3.03
2019-02-14T00:10:09.302Z,3.01
2019-02-14T00:12:37.981Z,2.87
2019-02-14T00:15:09.714Z,2.68
2019-02-14T00:17:38.021Z,1.99
2019-02-14T00:20:08.679Z,2.63
2019-02-14T00:22:37.055Z,1.66
2019-02-14T00:25:07.063Z,2.14
2019-02-14T00:27:35.454Z,2.78
2019-02-14T00:30:03.998Z,1.25
2019-02-14T00:32:32.316Z,1.01
2019-02-14T00:35:00.621Z,0.90
2019-02-14T00:37:29.207Z,0.84
2019-02-14T00:39:57.536Z,0.88
2019-02-14T00:42:26.233Z,0.84
2019-02-14T00:44:54.600Z,0.83
2019-02-14T00:47:23.208Z,0.81
2019-02-14T00:49:51.509Z,0.93
2019-02-14T00:52:19.842Z,2.68
2019-02-14T00:54:48.155Z,2.60
2019-02-14T00:57:16.495Z,2.63
2019-02-14T00:59:44.801Z,0.86
2019-02-14T01:02:13.104Z,2.46
2019-02-14T01:04:41.775Z,1.32
2019-02-14T01:07:10.359Z,0.75
2019-02-14T01:09:38.793Z,1.54
2019-02-14T01:12:08.341Z,2.00
2019-02-14T01:14:36.716Z,1.39
2019-02-14T01:17:05.175Z,0.68
2019-02-14T01:19:33.485Z,1.70
2019-02-14T01:22:01.910Z,2.31
2019-02-14T01:24:30.227Z,0.67
2019-02-14T01:26:58.529Z,0.40
2019-02-14T01:29:26.854Z,1.73
2019-02-14T01:31:55.161Z,0.35
2019-02-14T01:34:23.569Z,0.23
2019-02-14T01:36:52.167Z,0.15
2019-02-14T01:39:20.479Z,0.20
2019-02-14T01:41:48.808Z,0.26
2019-02-14T01:44:17.415Z,0.18
2019-02-14T01:46:45.824Z,0.26
2019-02-14T01:49:14.133Z,0.30
2019-02-14T01:51:42.446Z,0.41
2019-02-14T01:54:10.768Z,1.60
2019-02-14T01:56:39.426Z,0.53
2019-02-14T01:59:07.738Z,1.58
2019-02-14T02:01:36.136Z,1.05
2019-02-14T02:04:04.892Z,0.47
2019-02-14T02:06:33.205Z,0.16
2019-02-14T02:09:01.535Z,1.32
2019-02-14T02:11:29.910Z,1.68
2019-02-14T02:13:58.220Z,1.68
2019-02-14T02:16:26.550Z,1.69
2019-02-14T02:18:54.862Z,1.49
2019-02-14T02:21:23.191Z,1.48
2019-02-14T02:23:51.580Z,1.59
2019-02-14T02:26:19.889Z,0.85
2019-02-14T02:28:48.224Z,0.08
2019-02-14T02:31:16.524Z,0.08
2019-02-14T02:33:44.916Z,0.10
2019-02-14T02:36:13.226Z,-0.06
2019-02-14T02:38:41.539Z,1.23
2019-02-14T02:41:09.853Z,1.63
2019-02-14T02:43:38.159Z,1.49
2019-02-14T02:46:06.488Z,0.54
2019-02-14T02:48:34.803Z,-0.13
2019-02-14T02:51:03.112Z,0.84
2019-02-14T02:53:31.791Z,1.34
2019-02-14T02:56:00.097Z,1.42
2019-02-14T02:58:28.433Z,1.77
2019-02-14T03:00:56.747Z,1.72
2019-02-14T03:03:25.067Z,1.79
2019-02-14T03:05:53.395Z,1.71
2019-02-14T03:08:21.694Z,1.83
2019-02-14T03:10:50.017Z,0.85
2019-02-14T03:13:18.644Z,-0.21
2019-02-14T03:15:47.030Z,-0.22
2019-02-14T03:18:15.359Z,-0.25
2019-02-14T03:20:43.846Z,-0.29
2019-02-14T03:23:13.046Z,-0.26
2019-02-14T03:25:41.370Z,-0.29
2019-02-14T03:28:09.683Z,-0.35
2019-02-14T03:30:38.105Z,-0.40
2019-02-14T03:33:06.425Z,-0.29
2019-02-14T03:35:34.735Z,-0.33
2019-02-14T03:38:03.068Z,-0.37
2019-02-14T03:40:31.377Z,-0.37
2019-02-14T03:42:59.789Z,-0.35
2019-02-14T03:45:28.107Z,-0.44
2019-02-14T03:47:56.422Z,-0.46
2019-02-14T03:50:24.825Z,-0.35
2019-02-14T03:52:53.136Z,-0.45
2019-02-14T03:55:21.497Z,-0.27
2019-02-14T03:57:49.810Z,-0.38
2019-02-14T04:00:18.704Z,-0.30
2019-02-14T04:02:47.410Z,-0.29
2019-02-14T04:05:15.732Z,-0.33
2019-02-14T04:07:44.103Z,-0.25
2019-02-14T04:10:13.974Z,-0.10
2019-02-14T04:12:42.586Z,-0.17
2019-02-14T04:15:16.270Z,1.09
2019-02-14T04:17:44.578Z,1.76
2019-02-14T04:20:13.569Z,1.89
2019-02-14T04:22:41.883Z,1.92
2019-02-14T04:25:10.559Z,1.95
2019-02-14T04:27:38.889Z,2.05
2019-02-14T04:30:10.560Z,1.43
2019-02-14T04:32:38.898Z,1.35
2019-02-14T04:35:07.743Z,1.36
2019-02-14T04:37:36.048Z,1.50
2019-02-14T04:40:07.666Z,1.89
2019-02-14T04:42:35.981Z,1.85
2019-02-14T04:45:06.062Z,1.71
2019-02-14T04:47:34.374Z,0.37
2019-02-14T04:50:02.817Z,0.34
2019-02-14T04:52:31.145Z,0.21
2019-02-14T04:54:59.918Z,0.25
2019-02-14T04:57:29.891Z,0.31
2019-02-14T04:59:58.477Z,0.49
2019-02-14T05:02:26.784Z,0.55
2019-02-14T05:04:55.129Z,0.45
2019-02-14T05:07:23.435Z,1.79
2019-02-14T05:09:51.741Z,0.39
2019-02-14T05:12:20.061Z,0.23
2019-02-14T05:14:48.440Z,0.29
2019-02-14T05:17:16.793Z,0.31
2019-02-14T05:19:45.089Z,0.31
2019-02-14T05:22:13.393Z,0.37
2019-02-14T05:24:41.730Z,0.31
2019-02-14T05:27:10.039Z,0.46
2019-02-14T05:29:38.385Z,0.40
2019-02-14T05:32:06.684Z,0.25
2019-02-14T05:34:34.992Z,0.26
2019-02-14T05:37:03.622Z,0.26
2019-02-14T05:39:32.316Z,0.12
2019-02-14T05:42:00.648Z,0.14
2019-02-14T05:44:29.278Z,0.09
2019-02-14T05:46:57.587Z,0.02
2019-02-14T05:49:25.916Z,0.21
2019-02-14T05:51:54.222Z,0.19
2019-02-14T05:54:22.583Z,0.20
2019-02-14T05:56:51.187Z,0.14
2019-02-14T05:59:19.490Z,0.14
2019-02-14T06:01:48.154Z,0.14
2019-02-14T06:04:16.465Z,0.12
2019-02-14T06:06:44.811Z,1.67
2019-02-14T06:09:13.116Z,2.11
2019-02-14T06:11:41.784Z,2.17
2019-02-14T06:14:10.151Z,2.13
2019-02-14T06:16:38.457Z,2.08
2019-02-14T06:19:06.799Z,2.36
2019-02-14T06:21:35.103Z,1.75
2019-02-14T06:24:03.410Z,2.36
2019-02-14T06:26:31.726Z,2.38
2019-02-14T06:29:00.036Z,2.27
2019-02-14T06:31:28.378Z,2.46
2019-02-14T06:33:56.700Z,2.55
2019-02-14T06:36:25.005Z,2.26
2019-02-14T06:38:53.674Z,1.61
2019-02-14T06:41:21.982Z,0.68
2019-02-14T06:43:50.306Z,1.86
2019-02-14T06:46:18.616Z,0.77
2019-02-14T06:48:46.966Z,0.75
2019-02-14T06:51:15.276Z,2.32
2019-02-14T06:53:43.582Z,2.64
2019-02-14T06:56:11.986Z,2.75
2019-02-14T06:58:40.298Z,2.70
2019-02-14T07:01:08.636Z,2.72
2019-02-14T07:03:36.943Z,2.66
2019-02-14T07:06:05.320Z,2.69
2019-02-14T07:08:34.236Z,2.65
2019-02-14T07:11:02.547Z,1.10
2019-02-14T07:13:30.865Z,0.96
2019-02-14T07:15:59.398Z,1.05
2019-02-14T07:18:27.703Z,1.08
2019-02-14T07:20:56.315Z,1.12
2019-02-14T07:23:24.961Z,2.73
2019-02-14T07:25:53.291Z,1.33
2019-02-14T07:28:21.609Z,1.21
2019-02-14T07:30:49.954Z,1.24
2019-02-14T07:33:18.379Z,1.41
2019-02-14T07:35:46.693Z,1.45
2019-02-14T07:38:15.024Z,1.90
2019-02-14T07:40:43.626Z,1.52
2019-02-14T07:43:11.960Z,1.72
2019-02-14T07:45:41.335Z,1.57
2019-02-14T07:48:09.925Z,2.01
2019-02-14T07:50:38.235Z,1.69
2019-02-14T07:53:06.549Z,1.78
2019-02-14T07:55:34.881Z,1.98
2019-02-14T07:58:03.230Z,2.17
2019-02-14T08:00:31.572Z,2.18
2019-02-14T08:03:00.432Z,2.18
2019-02-14T08:05:28.698Z,2.42
2019-02-14T08:07:57.025Z,4.00
2019-02-14T08:10:25.331Z,2.87
2019-02-14T08:12:54.024Z,2.72
2019-02-14T08:15:22.331Z,2.85
2019-02-14T08:17:50.639Z,2.99
2019-02-14T08:20:21.584Z,2.97
2019-02-14T08:22:49.941Z,3.25
2019-02-14T08:25:18.348Z,3.12
2019-02-14T08:27:46.660Z,2.99
2019-02-14T08:30:17.983Z,2.89
2019-02-14T08:32:46.296Z,3.00
2019-02-14T08:35:14.602Z,3.83
2019-02-14T08:37:45.817Z,4.39
2019-02-14T08:40:21.973Z,2.63
2019-02-14T08:42:50.278Z,2.61
2019-02-14T08:45:18.606Z,3.06
2019-02-14T08:47:47.275Z,3.07
2019-02-14T08:50:15.646Z,3.07
2019-02-14T08:52:44.020Z,3.27
2019-02-14T08:55:12.686Z,3.26
2019-02-14T08:57:41.010Z,4.71
2019-02-14T09:00:17.062Z,4.65
2019-02-14T09:02:45.447Z,3.83
2019-02-14T09:05:14.249Z,4.96
2019-02-14T09:07:42.606Z,5.57
2019-02-14T09:10:13.339Z,5.30
2019-02-14T09:12:41.647Z,4.51
2019-02-14T09:15:14.651Z,5.73
2019-02-14T09:17:43.038Z,6.52
2019-02-14T09:20:19.099Z,4.93
2019-02-14T09:22:47.410Z,4.94
2019-02-14T09:25:15.811Z,5.24
2019-02-14T09:27:44.117Z,5.25
2019-02-14T09:30:14.804Z,5.44
2019-02-14T09:32:43.302Z,5.48
2019-02-14T09:35:11.753Z,5.82
2019-02-14T09:37:40.084Z,5.80
2019-02-14T09:40:18.279Z,6.38
2019-02-14T09:42:46.665Z,5.97
2019-02-14T09:45:15.146Z,6.19
2019-02-14T09:47:43.517Z,5.23
2019-02-14T09:50:13.594Z,6.06
2019-02-14T09:52:42.371Z,5.79
2019-02-14T09:55:15.086Z,6.02
2019-02-14T09:57:43.454Z,5.76
2019-02-14T10:00:16.880Z,6.23
2019-02-14T10:02:45.356Z,5.75
2019-02-14T10:05:15.209Z,5.39
2019-02-14T10:07:43.590Z,6.45
2019-02-14T10:10:14.749Z,5.93
2019-02-14T10:12:43.417Z,5.34
2019-02-14T10:15:11.912Z,5.08
2019-02-14T10:17:40.225Z,7.02
2019-02-14T10:20:14.070Z,7.05
2019-02-14T10:22:42.378Z,6.35
2019-02-14T10:25:11.526Z,6.33
2019-02-14T10:27:39.860Z,6.52
2019-02-14T10:30:17.243Z,6.48
2019-02-14T10:32:45.933Z,6.59
2019-02-14T10:35:14.512Z,6.28
2019-02-14T10:37:42.983Z,6.59
2019-02-14T10:40:13.732Z,5.92
2019-02-14T10:42:42.049Z,6.31
2019-02-14T10:45:13.113Z,7.16
2019-02-14T10:47:41.428Z,8.10
2019-02-14T10:50:11.292Z,6.67
2019-02-14T10:52:39.670Z,6.51
2019-02-14T10:55:10.897Z,6.27
2019-02-14T10:57:39.287Z,6.04
2019-02-14T11:00:16.278Z,6.09
2019-02-14T11:02:45.054Z,6.23
2019-02-14T11:05:15.104Z,6.01
2019-02-14T11:07:43.501Z,5.74
2019-02-14T11:10:13.568Z,6.06
2019-02-14T11:12:41.872Z,6.75
2019-02-14T11:15:22.070Z,6.98
2019-02-14T11:17:50.376Z,8.48
2019-02-14T11:20:19.083Z,7.96
2019-02-14T11:22:49.046Z,8.08
2019-02-14T11:25:26.555Z,7.66
2019-02-14T11:27:54.880Z,8.81
2019-02-14T11:30:23.185Z,8.11
2019-02-14T11:32:51.525Z,8.51
2019-02-14T11:35:19.823Z,8.96
2019-02-14T11:37:48.117Z,9.56
2019-02-14T11:40:16.471Z,10.27
2019-02-14T11:42:45.055Z,10.91
2019-02-14T11:45:24.163Z,11.05
2019-02-14T11:47:52.465Z,11.60
2019-02-14T11:50:21.160Z,11.86
2019-02-14T11:52:49.461Z,13.88
2019-02-14T11:55:17.839Z,13.88
2019-02-14T11:57:46.233Z,13.28
2019-02-14T12:00:24.315Z,14.60
2019-02-14T12:02:55.808Z,15.04
2019-02-14T12:05:22.729Z,15.17
2019-02-14T12:07:51.051Z,14.64
2019-02-14T12:10:19.780Z,14.20
2019-02-14T12:12:48.078Z,14.45
2019-02-14T12:15:16.464Z,14.21
2019-02-14T12:17:45.138Z,14.21
2019-02-14T12:20:15.406Z,14.67
2019-02-14T12:22:46.505Z,14.83
2019-02-14T12:25:29.129Z,14.25
2019-02-14T12:27:57.431Z,14.90
2019-02-14T12:30:25.806Z,14.05
2019-02-14T12:32:54.125Z,14.60
2019-02-14T12:35:22.426Z,15.21
2019-02-14T12:37:50.772Z,15.46
2019-02-14T12:40:19.147Z,14.90
2019-02-14T12:42:47.451Z,15.38
2019-02-14T12:45:21.529Z,14.92
2019-02-14T12:47:48.838Z,14.78
2019-02-14T12:50:17.174Z,15.67
2019-02-14T12:52:45.480Z,14.27
2019-02-14T12:55:13.777Z,14.20
2019-02-14T12:57:42.118Z,14.94
2019-02-14T13:00:16.254Z,12.83
2019-02-14T13:02:44.588Z,14.40
2019-02-14T13:05:12.956Z,13.98
2019-02-14T13:07:41.255Z,14.43
2019-02-14T13:10:12.215Z,15.13
2019-02-14T13:12:40.520Z,15.02
2019-02-14T13:15:14.805Z,15.08
2019-02-14T13:17:43.113Z,15.49
2019-02-14T13:20:11.429Z,14.69
2019-02-14T13:22:39.820Z,15.13
2019-02-14T13:25:10.804Z,13.99
2019-02-14T13:27:39.135Z,14.88
2019-02-14T13:30:10.910Z,15.08
2019-02-14T13:32:39.279Z,15.27
2019-02-14T13:35:08.076Z,13.97
2019-02-14T13:37:36.374Z,16.07
2019-02-14T13:40:06.528Z,15.37
2019-02-14T13:42:34.836Z,15.19
2019-02-14T13:45:03.137Z,14.53
2019-02-14T13:47:31.470Z,15.23
2019-02-14T13:49:59.763Z,12.79
2019-02-14T13:52:28.173Z,15.11
2019-02-14T13:54:56.480Z,14.55
2019-02-14T13:57:24.861Z,14.66
2019-02-14T13:59:53.190Z,14.25
2019-02-14T14:02:21.489Z,15.16
2019-02-14T14:04:49.910Z,14.08
2019-02-14T14:07:18.202Z,14.76
2019-02-14T14:09:46.509Z,14.50
2019-02-14T14:12:14.840Z,14.68
2019-02-14T14:14:43.143Z,14.45
2019-02-14T14:17:11.797Z,14.39
2019-02-14T14:19:40.107Z,14.14
2019-02-14T14:22:08.761Z,14.44
2019-02-14T14:24:37.453Z,14.19
2019-02-14T14:27:06.164Z,14.64
2019-02-14T14:29:34.504Z,14.69
2019-02-14T14:32:02.801Z,14.75
2019-02-14T14:34:31.105Z,14.88
2019-02-14T14:36:59.429Z,14.76
2019-02-14T14:39:28.050Z,15.29
2019-02-14T14:41:56.390Z,15.43
2019-02-14T14:44:26.354Z,14.51
2019-02-14T14:46:55.033Z,14.57
2019-02-14T14:49:23.737Z,14.20
2019-02-14T14:51:52.043Z,14.12
2019-02-14T14:54:20.390Z,14.66
2019-02-14T14:56:48.754Z,14.21
2019-02-14T14:59:17.060Z,14.43
2019-02-14T15:01:45.379Z,14.04
2019-02-14T15:04:13.753Z,13.47
2019-02-14T15:06:42.081Z,13.71
2019-02-14T15:09:10.855Z,13.51
2019-02-14T15:11:39.574Z,13.85
2019-02-14T15:14:08.263Z,13.07
2019-02-14T15:16:36.563Z,14.18
2019-02-14T15:19:04.894Z,13.60
2019-02-14T15:21:33.315Z,12.54
2019-02-14T15:24:01.639Z,12.72
2019-02-14T15:26:29.950Z,12.56
2019-02-14T15:28:58.272Z,12.13
2019-02-14T15:31:26.577Z,11.70
2019-02-14T15:33:55.214Z,11.46
2019-02-14T15:36:26.542Z,11.38
2019-02-14T15:38:53.938Z,10.94
2019-02-14T15:41:22.337Z,10.75
2019-02-14T15:43:50.644Z,10.19
2019-02-14T15:46:18.954Z,10.23
2019-02-14T15:48:47.617Z,10.13
2019-02-14T15:51:17.784Z,9.69
2019-02-14T15:53:46.398Z,9.77
2019-02-14T15:56:14.763Z,9.73
2019-02-14T15:58:43.057Z,9.26
2019-02-14T16:01:11.397Z,9.03
2019-02-14T16:03:40.696Z,8.94
2019-02-14T16:06:09.768Z,8.57
2019-02-14T16:08:38.157Z,8.38
2019-02-14T16:11:06.546Z,8.11
2019-02-14T16:13:35.165Z,8.02
2019-02-14T16:16:03.848Z,7.99
2019-02-14T16:18:32.181Z,7.88
2019-02-14T16:21:00.811Z,7.62
2019-02-14T16:23:31.765Z,7.54
2019-02-14T16:26:00.163Z,7.41
2019-02-14T16:28:28.527Z,7.28
2019-02-14T16:30:56.975Z,7.17
2019-02-14T16:33:25.250Z,7.08
2019-02-14T16:35:53.555Z,7.18
2019-02-14T16:38:21.885Z,6.89
2019-02-14T16:40:51.133Z,6.79
2019-02-14T16:43:19.458Z,6.72
2019-02-14T16:45:47.755Z,6.70
2019-02-14T16:48:16.487Z,6.73
2019-02-14T16:50:44.852Z,6.65
2019-02-14T16:53:13.220Z,6.62
2019-02-14T16:55:41.630Z,6.55
2019-02-14T16:58:09.933Z,6.41
2019-02-14T17:00:38.234Z,6.39
2019-02-14T17:03:06.560Z,6.24
2019-02-14T17:05:34.855Z,6.33
2019-02-14T17:08:03.656Z,6.24
2019-02-14T17:10:37.102Z,6.25
2019-02-14T17:13:02.048Z,6.12
2019-02-14T17:15:30.367Z,6.03
2019-02-14T17:17:58.675Z,5.98
2019-02-14T17:20:27.020Z,5.85
2019-02-14T17:22:55.320Z,5.72
2019-02-14T17:25:23.621Z,5.63
2019-02-14T17:27:52.240Z,5.49
2019-02-14T17:30:20.558Z,5.71
2019-02-14T17:32:48.901Z,5.64
2019-02-14T17:35:17.207Z,5.63
2019-02-14T17:37:45.576Z,5.73
2019-02-14T17:40:14.168Z,5.76
2019-02-14T17:42:42.476Z,5.45
2019-02-14T17:45:11.326Z,5.65
2019-02-14T17:47:39.655Z,5.62
2019-02-14T17:50:09.102Z,5.50
2019-02-14T17:52:37.436Z,5.63
2019-02-14T17:55:08.690Z,5.56
2019-02-14T17:57:37.094Z,5.53
2019-02-14T18:00:11.267Z,5.42
2019-02-14T18:02:39.643Z,5.19
2019-02-14T18:05:09.315Z,4.94
2019-02-14T18:07:37.626Z,5.11
2019-02-14T18:10:09.146Z,4.88
2019-02-14T18:12:37.657Z,4.84
2019-02-14T18:15:09.181Z,4.72
2019-02-14T18:17:37.803Z,4.80
2019-02-14T18:20:09.664Z,4.90
2019-02-14T18:22:38.650Z,4.98
2019-02-14T18:25:13.342Z,4.87
2019-02-14T18:27:41.654Z,4.91
2019-02-14T18:30:11.602Z,4.88
2019-02-14T18:32:39.986Z,4.99
2019-02-14T18:35:10.470Z,4.85
2019-02-14T18:37:38.973Z,4.50
2019-02-14T18:40:11.817Z,4.41
2019-02-14T18:42:43.468Z,4.50
2019-02-14T18:45:13.459Z,4.76
2019-02-14T18:47:42.237Z,5.54
2019-02-14T18:50:12.391Z,5.60
2019-02-14T18:52:40.694Z,5.41
2019-02-14T18:55:10.670Z,5.57
2019-02-14T18:57:38.979Z,5.49
2019-02-14T19:00:10.902Z,5.50
2019-02-14T19:02:39.598Z,5.46
2019-02-14T19:05:10.376Z,4.13
2019-02-14T19:07:38.715Z,3.83
2019-02-14T19:10:12.814Z,3.77
2019-02-14T19:12:42.258Z,3.53
2019-02-14T19:15:12.185Z,4.72
2019-02-14T19:17:40.584Z,4.76
2019-02-14T19:20:10.747Z,4.39
2019-02-14T19:22:40.731Z,4.36
2019-02-14T19:25:09.675Z,4.54
2019-02-14T19:27:37.979Z,4.52
2019-02-14T19:30:08.959Z,4.31
2019-02-14T19:32:37.349Z,3.49
2019-02-14T19:35:07.908Z,3.47
2019-02-14T19:37:36.224Z,3.32
2019-02-14T19:40:06.702Z,3.37
2019-02-14T19:42:35.309Z,4.60
2019-02-14T19:45:08.725Z,4.61
2019-02-14T19:47:37.513Z,4.67
2019-02-14T19:50:14.080Z,4.58
2019-02-14T19:52:42.689Z,4.59
2019-02-14T19:55:11.296Z,3.20
2019-02-14T19:57:39.589Z,3.01
2019-02-14T20:00:11.052Z,3.35
2019-02-14T20:02:42.297Z,2.87
2019-02-14T20:05:10.779Z,2.67
2019-02-14T20:07:39.901Z,2.80
2019-02-14T20:10:10.933Z,2.58
2019-02-14T20:12:39.353Z,3.16
2019-02-14T20:15:21.459Z,3.69
2019-02-14T20:17:49.791Z,3.75
2019-02-14T20:20:18.103Z,3.85
2019-02-14T20:22:46.442Z,3.90
2019-02-14T20:25:20.507Z,3.95
2019-02-14T20:27:50.021Z,3.72
2019-02-14T20:30:18.800Z,3.73
2019-02-14T20:32:47.164Z,3.72
2019-02-14T20:35:15.506Z,3.73
2019-02-14T20:37:43.828Z,3.61
2019-02-14T20:40:12.241Z,3.61
2019-02-14T20:42:40.544Z,3.55
2019-02-14T20:45:12.451Z,3.49
2019-02-14T20:47:40.832Z,3.59
2019-02-14T20:50:15.171Z,3.60
2019-02-14T20:52:43.587Z,3.67
2019-02-14T20:55:25.845Z,3.59
2019-02-14T20:57:54.254Z,3.55
2019-02-14T21:00:27.155Z,3.53
2019-02-14T21:02:55.460Z,3.03
2019-02-14T21:05:23.784Z,3.24
2019-02-14T21:07:52.090Z,3.25
2019-02-14T21:10:20.425Z,3.35
2019-02-14T21:12:48.791Z,3.16
2019-02-14T21:15:17.102Z,3.21
2019-02-14T21:17:45.495Z,3.16
2019-02-14T21:20:15.827Z,3.16
2019-02-14T21:22:44.176Z,2.16
2019-02-14T21:25:13.622Z,2.26
2019-02-14T21:27:42.293Z,2.44
2019-02-14T21:30:18.814Z,2.81
2019-02-14T21:32:47.217Z,2.87
2019-02-14T21:35:15.669Z,2.76
2019-02-14T21:37:43.967Z,2.86
2019-02-14T21:40:15.309Z,3.01
2019-02-14T21:42:43.630Z,2.85
2019-02-14T21:45:13.991Z,2.18
2019-02-14T21:47:42.384Z,2.67
2019-02-14T21:50:11.933Z,2.67
2019-02-14T21:52:40.319Z,2.59
2019-02-14T21:55:10.917Z,2.60
2019-02-14T21:57:39.583Z,2.65
2019-02-14T22:00:22.804Z,2.80
2019-02-14T22:02:51.118Z,2.42
2019-02-14T22:05:25.056Z,2.33
2019-02-14T22:07:50.681Z,2.47
2019-02-14T22:10:19.220Z,2.41
2019-02-14T22:12:47.630Z,2.62
2019-02-14T22:15:24.441Z,2.49
2019-02-14T22:17:52.788Z,2.46
2019-02-14T22:20:21.876Z,2.31
2019-02-14T22:22:50.516Z,2.37
2019-02-14T22:25:18.825Z,2.07
2019-02-14T22:27:47.194Z,2.21
2019-02-14T22:30:16.195Z,2.34
2019-02-14T22:32:45.745Z,2.36
2019-02-14T22:35:14.561Z,2.14
2019-02-14T22:37:42.865Z,2.31
2019-02-14T22:40:13.381Z,2.30
2019-02-14T22:42:46.976Z,1.56
2019-02-14T22:45:13.942Z,0.69
2019-02-14T22:47:42.863Z,0.70
2019-02-14T22:50:11.514Z,1.78
2019-02-14T22:52:39.828Z,2.21
2019-02-14T22:55:10.190Z,2.00
2019-02-14T22:57:38.503Z,1.97
2019-02-14T23:00:40.701Z,1.93
2019-02-14T23:03:09.015Z,1.93
2019-02-14T23:05:37.664Z,1.72
2019-02-14T23:08:06.075Z,1.74
2019-02-14T23:10:34.733Z,1.81
2019-02-14T23:13:03.043Z,1.72
2019-02-14T23:15:31.377Z,1.62
2019-02-14T23:17:59.684Z,0.15
2019-02-14T23:20:28.593Z,1.11
2019-02-14T23:22:56.888Z,1.51
2019-02-14T23:25:25.194Z,1.51
2019-02-14T23:27:53.524Z,1.45
2019-02-14T23:30:21.832Z,0.39
2019-02-14T23:32:50.474Z,-0.01
2019-02-14T23:35:18.779Z,0.03
2019-02-14T23:37:47.230Z,-0.02
2019-02-14T23:40:15.554Z,0.01
2019-02-14T23:42:43.864Z,-0.20
2019-02-14T23:45:12.375Z,0.09
2019-02-14T23:47:40.873Z,0.15
2019-02-14T23:50:10.822Z,0.13
2019-02-14T23:52:39.157Z,-0.01
2019-02-14T23:55:10.509Z,0.06
2019-02-14T23:57:38.823Z,-0.03
